Time,TemperatureF,DewpointF,PressureIn,WindDirection,WindDirectionDegrees,WindSpeedMPH,WindSpeedGustMPH,Humidity,HourlyPrecipIn,Conditions,Clouds,dailyrainin,SoftwareType,DateUTC
2013-07-19 00:14:00,90.0,74.7,29.75,WSW,247,2.2,-999.0,61,-99.99,,,0.00,Acu-Link.com,2013-07-19 04:14:00,
2013-07-19 00:29:00,88.3,75.5,29.76,West,270,3.7,-999.0,66,-99.99,,,0.00,Acu-Link.com,2013-07-19 04:29:00,
2013-07-19 00:45:00,87.8,75.9,29.77,West,270,3.2,-999.0,68,-99.99,,,0.00,Acu-Link.com,2013-07-19 04:45:00,
2013-07-19 01:00:00,87.6,76.1,29.77,West,270,3.7,-999.0,69,-99.99,,,0.00,Acu-Link.com,2013-07-19 05:00:00,
2013-07-19 01:15:00,87.3,76.3,29.78,West,270,4.2,-999.0,70,-99.99,,,0.00,Acu-Link.com,2013-07-19 05:15:00,
2013-07-19 01:30:00,87.1,76.1,29.77,West,270,3.2,-999.0,70,-99.99,,,0.00,Acu-Link.com,2013-07-19 05:30:00,
2013-07-19 01:45:00,87.1,76.1,29.77,West,270,5.3,-999.0,70,-99.99,,,0.00,Acu-Link.com,2013-07-19 05:45:00,
2013-07-19 02:00:00,86.7,76.1,29.77,West,270,1.7,-999.0,71,-99.99,,,0.00,Acu-Link.com,2013-07-19 06:00:00,
2013-07-19 02:16:00,86.5,76.8,29.76,West,270,3.7,-999.0,73,-99.99,,,0.00,Acu-Link.com,2013-07-19 06:16:00,
2013-07-19 02:31:00,86.2,76.5,29.76,WNW,292,4.2,-999.0,73,-99.99,,,0.00,Acu-Link.com,2013-07-19 06:31:00,
2013-07-19 02:46:00,86.0,77.1,29.76,West,270,3.2,-999.0,75,-99.99,,,0.00,Acu-Link.com,2013-07-19 06:46:00,
2013-07-19 03:02:00,85.6,77.1,29.76,West,270,2.2,-999.0,76,-99.99,,,0.00,Acu-Link.com,2013-07-19 07:02:00,
2013-07-19 03:17:00,85.1,77.1,29.76,West,270,3.2,-999.0,77,-99.99,,,0.00,Acu-Link.com,2013-07-19 07:17:00,
2013-07-19 03:32:00,84.7,77.1,29.77,West,270,2.7,-999.0,78,-99.99,,,0.00,Acu-Link.com,2013-07-19 07:32:00,
2013-07-19 03:47:00,84.7,77.1,29.76,West,270,6.3,-999.0,78,-99.99,,,0.00,Acu-Link.com,2013-07-19 07:47:00,
2013-07-19 04:03:00,84.6,77.3,29.76,North,0,5.8,-999.0,79,-99.99,,,0.00,Acu-Link.com,2013-07-19 08:03:00,
2013-07-19 04:18:00,84.6,77.3,29.76,West,270,5.8,-999.0,79,-99.99,,,0.00,Acu-Link.com,2013-07-19 08:18:00,
2013-07-19 04:34:00,84.4,77.2,29.76,West,270,4.2,-999.0,79,-99.99,,,0.00,Acu-Link.com,2013-07-19 08:34:00,
2013-07-19 04:49:00,84.2,77.0,29.76,WSW,247,3.2,-999.0,79,-99.99,,,0.00,Acu-Link.com,2013-07-19 08:49:00,
2013-07-19 05:04:00,84.0,76.4,29.75,West,270,5.8,-999.0,78,-99.99,,,0.00,Acu-Link.com,2013-07-19 09:04:00,
2013-07-19 05:19:00,83.8,75.8,29.75,West,270,4.7,-999.0,77,-99.99,,,0.00,Acu-Link.com,2013-07-19 09:19:00,
2013-07-19 05:34:00,83.7,76.1,29.75,West,270,4.7,-999.0,78,-99.99,,,0.00,Acu-Link.com,2013-07-19 09:34:00,
2013-07-19 05:49:00,83.7,76.1,29.75,West,270,4.2,-999.0,78,-99.99,,,0.00,Acu-Link.com,2013-07-19 09:49:00,
2013-07-19 06:04:00,83.7,75.7,29.75,West,270,4.7,-999.0,77,-99.99,,,0.00,Acu-Link.com,2013-07-19 10:04:00,
2013-07-19 06:20:00,83.5,75.5,29.75,North,0,2.7,-999.0,77,-99.99,,,0.00,Acu-Link.com,2013-07-19 10:20:00,
2013-07-19 06:35:00,83.5,75.1,29.74,WSW,247,3.2,-999.0,76,-99.99,,,0.00,Acu-Link.com,2013-07-19 10:35:00,
2013-07-19 06:50:00,83.7,75.3,29.74,WNW,292,2.7,-999.0,76,-99.99,,,0.00,Acu-Link.com,2013-07-19 10:50:00,
2013-07-19 07:05:00,83.8,75.8,29.75,SSW,202,1.1,-999.0,77,-99.99,,,0.00,Acu-Link.com,2013-07-19 11:05:00,
2013-07-19 07:20:00,84.2,75.4,29.75,West,270,5.3,-999.0,75,-99.99,,,0.00,Acu-Link.com,2013-07-19 11:20:00,
2013-07-19 07:35:00,84.6,75.4,29.75,West,270,4.7,-999.0,74,-99.99,,,0.00,Acu-Link.com,2013-07-19 11:35:00,
2013-07-19 07:51:00,84.7,75.9,29.76,WSW,247,2.2,-999.0,75,-99.99,,,0.00,Acu-Link.com,2013-07-19 11:51:00,
2013-07-19 08:06:00,84.7,76.3,29.76,West,270,5.3,-999.0,76,-99.99,,,0.00,Acu-Link.com,2013-07-19 12:06:00,
2013-07-19 08:21:00,85.3,76.5,29.76,NNE,22,1.7,-999.0,75,-99.99,,,0.00,Acu-Link.com,2013-07-19 12:21:00,
2013-07-19 08:37:00,85.8,76.5,29.76,SW,225,4.2,-999.0,74,-99.99,,,0.00,Acu-Link.com,2013-07-19 12:37:00,
2013-07-19 08:52:00,86.4,76.7,29.76,West,270,4.2,-999.0,73,-99.99,,,0.00,Acu-Link.com,2013-07-19 12:52:00,
2013-07-19 09:07:00,86.5,76.8,29.76,West,270,3.7,-999.0,73,-99.99,,,0.00,Acu-Link.com,2013-07-19 13:07:00,
2013-07-19 09:22:00,87.1,76.9,29.76,West,270,3.2,-999.0,72,-99.99,,,0.00,Acu-Link.com,2013-07-19 13:22:00,
2013-07-19 09:37:00,88.3,75.9,29.76,NNE,22,6.3,-999.0,67,-99.99,,,0.00,Acu-Link.com,2013-07-19 13:37:00,
2013-07-19 09:52:00,89.1,76.7,29.75,West,270,5.3,-999.0,67,-99.99,,,0.00,Acu-Link.com,2013-07-19 13:52:00,
2013-07-19 10:08:00,90.5,76.1,29.75,West,270,5.8,-999.0,63,-99.99,,,0.00,Acu-Link.com,2013-07-19 14:08:00,
2013-07-19 10:23:00,90.7,76.3,29.75,West,270,4.7,-999.0,63,-99.99,,,0.00,Acu-Link.com,2013-07-19 14:23:00,
2013-07-19 10:38:00,91.4,77.0,29.74,West,270,6.8,-999.0,63,-99.99,,,0.00,Acu-Link.com,2013-07-19 14:38:00,
2013-07-19 10:53:00,92.5,76.6,29.74,WSW,247,6.3,-999.0,60,-99.99,,,0.00,Acu-Link.com,2013-07-19 14:53:00,
2013-07-19 11:09:00,93.2,77.2,29.74,WSW,247,6.3,-999.0,60,-99.99,,,0.00,Acu-Link.com,2013-07-19 15:09:00,
2013-07-19 11:24:00,93.6,77.1,29.74,NNE,22,5.3,-999.0,59,-99.99,,,0.00,Acu-Link.com,2013-07-19 15:24:00,
2013-07-19 11:39:00,94.1,77.0,29.74,West,270,6.8,-999.0,58,-99.99,,,0.00,Acu-Link.com,2013-07-19 15:39:00,
2013-07-19 11:54:00,94.3,76.7,29.73,WNW,292,4.7,-999.0,57,-99.99,,,0.00,Acu-Link.com,2013-07-19 15:54:00,
2013-07-19 12:09:00,95.2,77.0,29.72,WSW,247,2.2,-999.0,56,-99.99,,,0.00,Acu-Link.com,2013-07-19 16:09:00,
2013-07-19 12:24:00,96.1,77.3,29.72,SW,225,9.4,-999.0,55,-99.99,,,0.00,Acu-Link.com,2013-07-19 16:24:00,
2013-07-19 12:40:00,96.4,77.0,29.71,West,270,6.3,-999.0,54,-99.99,,,0.00,Acu-Link.com,2013-07-19 16:40:00,
2013-07-19 12:55:00,96.3,75.8,29.70,West,270,13.0,-999.0,52,-99.99,,,0.00,Acu-Link.com,2013-07-19 16:55:00,
2013-07-19 13:10:00,96.8,76.8,29.69,West,270,6.3,-999.0,53,-99.99,,,0.00,Acu-Link.com,2013-07-19 17:10:00,
2013-07-19 13:25:00,97.3,74.9,29.69,NNW,337,8.3,-999.0,49,-99.99,,,0.00,Acu-Link.com,2013-07-19 17:25:00,
2013-07-19 13:40:00,97.5,75.7,29.68,West,270,11.4,-999.0,50,-99.99,,,0.00,Acu-Link.com,2013-07-19 17:40:00,
2013-07-19 13:55:00,97.3,76.1,29.68,West,270,8.9,-999.0,51,-99.99,,,0.00,Acu-Link.com,2013-07-19 17:55:00,
2013-07-19 14:11:00,98.1,76.2,29.68,West,270,10.4,-999.0,50,-99.99,,,0.00,Acu-Link.com,2013-07-19 18:11:00,
2013-07-19 14:26:00,98.2,76.9,29.67,West,270,8.3,-999.0,51,-99.99,,,0.00,Acu-Link.com,2013-07-19 18:26:00,
2013-07-19 14:41:00,97.7,76.5,29.67,West,270,5.8,-999.0,51,-99.99,,,0.00,Acu-Link.com,2013-07-19 18:41:00,
2013-07-19 14:56:00,99.0,75.8,29.66,West,270,9.4,-999.0,48,-99.99,,,0.00,Acu-Link.com,2013-07-19 18:56:00,
2013-07-19 15:11:00,98.4,75.9,29.65,SSE,157,10.9,-999.0,49,-99.99,,,0.00,Acu-Link.com,2013-07-19 19:11:00,
2013-07-19 15:26:00,97.5,76.3,29.65,West,270,6.8,-999.0,51,-99.99,,,0.00,Acu-Link.com,2013-07-19 19:26:00,
2013-07-19 15:41:00,99.0,75.8,29.64,West,270,6.3,-999.0,48,-99.99,,,0.00,Acu-Link.com,2013-07-19 19:41:00,
2013-07-19 15:57:00,99.1,74.6,29.63,West,270,12.5,-999.0,46,-99.99,,,0.00,Acu-Link.com,2013-07-19 19:57:00,
2013-07-19 16:12:00,99.0,73.9,29.63,West,270,8.3,-999.0,45,-99.99,,,0.00,Acu-Link.com,2013-07-19 20:12:00,
2013-07-19 16:27:00,99.5,74.3,29.62,West,270,10.4,-999.0,45,-99.99,,,0.00,Acu-Link.com,2013-07-19 20:27:00,
2013-07-19 16:42:00,99.0,74.5,29.61,West,270,7.8,-999.0,46,-99.99,,,0.00,Acu-Link.com,2013-07-19 20:42:00,
2013-07-19 16:58:00,98.8,74.4,29.61,West,270,10.9,-999.0,46,-99.99,,,0.00,Acu-Link.com,2013-07-19 20:58:00,
2013-07-19 17:13:00,98.8,75.0,29.61,West,270,8.3,-999.0,47,-99.99,,,0.00,Acu-Link.com,2013-07-19 21:13:00,
2013-07-19 17:28:00,98.1,75.0,29.60,ESE,112,9.4,-999.0,48,-99.99,,,0.00,Acu-Link.com,2013-07-19 21:28:00,
2013-07-19 17:43:00,98.1,74.4,29.60,West,270,9.9,-999.0,47,-99.99,,,0.00,Acu-Link.com,2013-07-19 21:43:00,
2013-07-19 17:58:00,97.7,73.4,29.59,NW,315,6.8,-999.0,46,-99.99,,,0.00,Acu-Link.com,2013-07-19 21:58:00,
2013-07-19 18:13:00,97.7,74.0,29.59,WSW,247,7.8,-999.0,47,-99.99,,,0.00,Acu-Link.com,2013-07-19 22:13:00,
2013-07-19 18:29:00,98.1,74.4,29.59,SW,225,6.3,-999.0,47,-99.99,,,0.00,Acu-Link.com,2013-07-19 22:29:00,
2013-07-19 18:44:00,95.2,75.3,29.60,NNW,337,12.5,-999.0,53,-99.99,,,0.00,Acu-Link.com,2013-07-19 22:44:00,
2013-07-19 18:59:00,94.8,73.8,29.60,WSW,247,6.8,-999.0,51,-99.99,,,0.00,Acu-Link.com,2013-07-19 22:59:00,
2013-07-19 19:15:00,94.6,74.8,29.59,West,270,8.9,-999.0,53,-99.99,,,0.00,Acu-Link.com,2013-07-19 23:15:00,
2013-07-19 19:30:00,94.1,74.9,29.60,West,270,6.3,-999.0,54,-99.99,,,0.00,Acu-Link.com,2013-07-19 23:30:00,
2013-07-19 19:45:00,93.4,74.8,29.61,SW,225,6.8,-999.0,55,-99.99,,,0.00,Acu-Link.com,2013-07-19 23:45:00,
2013-07-19 20:00:00,93.0,75.5,29.60,NNW,337,10.4,-999.0,57,-99.99,,,0.00,Acu-Link.com,2013-07-20 00:00:00,
2013-07-19 20:15:00,92.7,76.2,29.60,West,270,11.4,-999.0,59,-99.99,,,0.00,Acu-Link.com,2013-07-20 00:15:00,
2013-07-19 20:30:00,92.1,76.7,29.61,West,270,7.8,-999.0,61,-99.99,,,0.00,Acu-Link.com,2013-07-20 00:30:00,
2013-07-19 20:45:00,91.8,76.4,29.63,NE,45,8.9,-999.0,61,-99.99,,,0.00,Acu-Link.com,2013-07-20 00:45:00,
2013-07-19 21:02:00,91.6,76.7,29.63,West,270,8.3,-999.0,62,-99.99,,,0.00,Acu-Link.com,2013-07-20 01:02:00,
2013-07-19 21:17:00,91.4,76.5,29.63,West,270,10.4,-999.0,62,-99.99,,,0.00,Acu-Link.com,2013-07-20 01:17:00,
2013-07-19 21:32:00,91.2,76.3,29.64,West,270,5.8,-999.0,62,-99.99,,,0.00,Acu-Link.com,2013-07-20 01:32:00,
2013-07-19 21:48:00,90.7,76.3,29.64,West,270,6.3,-999.0,63,-99.99,,,0.00,Acu-Link.com,2013-07-20 01:48:00,
2013-07-19 22:03:00,90.5,77.1,29.63,West,270,5.8,-999.0,65,-99.99,,,0.00,Acu-Link.com,2013-07-20 02:03:00,
2013-07-19 22:18:00,89.8,76.9,29.62,West,270,9.4,-999.0,66,-99.99,,,0.00,Acu-Link.com,2013-07-20 02:18:00,
2013-07-19 22:33:00,89.6,77.2,29.62,West,270,8.3,-999.0,67,-99.99,,,0.00,Acu-Link.com,2013-07-20 02:33:00,
2013-07-19 22:49:00,89.2,75.4,29.61,West,270,7.8,-999.0,64,-99.99,,,0.00,Acu-Link.com,2013-07-20 02:49:00,
2013-07-19 23:04:00,89.1,74.3,29.60,West,270,6.8,-999.0,62,-99.99,,,0.00,Acu-Link.com,2013-07-20 03:04:00,
2013-07-19 23:19:00,89.1,74.8,29.60,WSW,247,3.2,-999.0,63,-99.99,,,0.00,Acu-Link.com,2013-07-20 03:19:00,
2013-07-19 23:34:00,88.3,76.4,29.59,West,270,7.3,-999.0,68,-99.99,,,0.00,Acu-Link.com,2013-07-20 03:34:00,
2013-07-19 23:50:00,88.0,77.0,29.60,West,270,9.9,-999.0,70,-99.99,,,0.00,Acu-Link.com,2013-07-20 03:50:00,